sensor_id;sensor_type;location;lat;lon;timestamp;temperature;humidity
55091;DHT22;40985;53.180;5.800;2023-09-07T00:01:30;17.80;99.90
55091;DHT22;40985;53.180;5.800;2023-09-07T00:03:56;17.80;99.90
55091;DHT22;40985;53.180;5.800;2023-09-07T00:06:22;17.80;99.90
55091;DHT22;40985;53.180;5.800;2023-09-07T00:08:48;17.80;99.90
55091;DHT22;40985;53.180;5.800;2023-09-07T00:11:14;17.90;99.90
55091;DHT22;40985;53.180;5.800;2023-09-07T00:13:39;17.80;99.90
55091;DHT22;40985;53.180;5.800;2023-09-07T00:16:05;17.90;99.90
55091;DHT22;40985;53.180;5.800;2023-09-07T00:18:32;17.90;99.90
55091;DHT22;40985;53.180;5.800;2023-09-07T00:20:58;17.90;99.90
55091;DHT22;40985;53.180;5.800;2023-09-07T00:23:25;17.90;99.90
55091;DHT22;40985;53.180;5.800;2023-09-07T00:25:50;17.80;99.90
55091;DHT22;40985;53.180;5.800;2023-09-07T00:28:16;17.80;99.90
55091;DHT22;40985;53.180;5.800;2023-09-07T00:30:42;17.80;99.90
55091;DHT22;40985;53.180;5.800;2023-09-07T00:33:08;17.80;99.90
55091;DHT22;40985;53.180;5.800;2023-09-07T00:35:34;17.80;99.90
55091;DHT22;40985;53.180;5.800;2023-09-07T00:38:00;17.80;99.90
55091;DHT22;40985;53.180;5.800;2023-09-07T00:40:26;17.80;99.90
55091;DHT22;40985;53.180;5.800;2023-09-07T00:42:52;17.80;99.90
55091;DHT22;40985;53.180;5.800;2023-09-07T00:45:18;17.80;99.90
55091;DHT22;40985;53.180;5.800;2023-09-07T00:47:44;17.80;99.90
55091;DHT22;40985;53.180;5.800;2023-09-07T00:50:11;17.80;99.90
55091;DHT22;40985;53.180;5.800;2023-09-07T00:52:42;17.70;99.90
55091;DHT22;40985;53.180;5.800;2023-09-07T00:55:08;17.70;99.90
55091;DHT22;40985;53.180;5.800;2023-09-07T00:57:35;17.60;99.90
55091;DHT22;40985;53.180;5.800;2023-09-07T01:00:03;17.60;99.90
55091;DHT22;40985;53.180;5.800;2023-09-07T01:02:31;17.60;99.90
55091;DHT22;40985;53.180;5.800;2023-09-07T01:04:57;17.60;99.90
55091;DHT22;40985;53.180;5.800;2023-09-07T01:07:35;17.60;99.90
55091;DHT22;40985;53.180;5.800;2023-09-07T01:10:03;17.60;99.90
55091;DHT22;40985;53.180;5.800;2023-09-07T01:12:29;17.50;99.90
55091;DHT22;40985;53.180;5.800;2023-09-07T01:14:55;17.40;99.90
55091;DHT22;40985;53.180;5.800;2023-09-07T01:17:21;17.30;99.90
55091;DHT22;40985;53.180;5.800;2023-09-07T01:19:52;17.20;99.90
55091;DHT22;40985;53.180;5.800;2023-09-07T01:22:19;17.20;99.90
55091;DHT22;40985;53.180;5.800;2023-09-07T01:24:45;17.10;99.90
55091;DHT22;40985;53.180;5.800;2023-09-07T01:27:12;17.10;99.90
55091;DHT22;40985;53.180;5.800;2023-09-07T01:29:39;17.00;99.90
55091;DHT22;40985;53.180;5.800;2023-09-07T01:32:06;17.00;99.90
55091;DHT22;40985;53.180;5.800;2023-09-07T01:34:32;16.90;99.90
55091;DHT22;40985;53.180;5.800;2023-09-07T01:36:57;17.00;99.90
55091;DHT22;40985;53.180;5.800;2023-09-07T01:39:23;17.00;99.90
55091;DHT22;40985;53.180;5.800;2023-09-07T01:41:49;16.90;99.90
55091;DHT22;40985;53.180;5.800;2023-09-07T01:44:15;17.00;99.90
55091;DHT22;40985;53.180;5.800;2023-09-07T01:46:40;16.90;99.90
55091;DHT22;40985;53.180;5.800;2023-09-07T01:49:06;16.90;99.90
55091;DHT22;40985;53.180;5.800;2023-09-07T01:51:32;16.90;99.90
55091;DHT22;40985;53.180;5.800;2023-09-07T01:53:57;16.90;99.90
55091;DHT22;40985;53.180;5.800;2023-09-07T01:56:23;16.90;99.90
55091;DHT22;40985;53.180;5.800;2023-09-07T01:58:49;16.80;99.90
55091;DHT22;40985;53.180;5.800;2023-09-07T02:01:22;16.80;99.90
55091;DHT22;40985;53.180;5.800;2023-09-07T02:03:48;16.80;99.90
55091;DHT22;40985;53.180;5.800;2023-09-07T02:06:14;16.80;99.90
55091;DHT22;40985;53.180;5.800;2023-09-07T02:08:40;16.80;99.90
55091;DHT22;40985;53.180;5.800;2023-09-07T02:11:06;16.80;99.90
55091;DHT22;40985;53.180;5.800;2023-09-07T02:13:32;16.70;99.90
55091;DHT22;40985;53.180;5.800;2023-09-07T02:15:57;16.70;99.90
55091;DHT22;40985;53.180;5.800;2023-09-07T02:18:23;16.70;99.90
55091;DHT22;40985;53.180;5.800;2023-09-07T02:20:49;16.80;99.90
55091;DHT22;40985;53.180;5.800;2023-09-07T02:23:14;16.80;99.90
55091;DHT22;40985;53.180;5.800;2023-09-07T02:25:41;16.80;99.90
55091;DHT22;40985;53.180;5.800;2023-09-07T02:28:06;16.80;99.90
55091;DHT22;40985;53.180;5.800;2023-09-07T02:30:32;16.80;99.90
55091;DHT22;40985;53.180;5.800;2023-09-07T02:32:58;16.80;99.90
55091;DHT22;40985;53.180;5.800;2023-09-07T02:35:23;16.80;99.90
55091;DHT22;40985;53.180;5.800;2023-09-07T02:37:49;16.80;99.90
55091;DHT22;40985;53.180;5.800;2023-09-07T02:40:14;16.80;99.90
55091;DHT22;40985;53.180;5.800;2023-09-07T02:42:42;16.80;99.90
55091;DHT22;40985;53.180;5.800;2023-09-07T02:45:11;16.90;99.90
55091;DHT22;40985;53.180;5.800;2023-09-07T02:47:38;16.90;99.90
55091;DHT22;40985;53.180;5.800;2023-09-07T02:50:03;16.80;99.90
55091;DHT22;40985;53.180;5.800;2023-09-07T02:52:29;16.80;99.90
55091;DHT22;40985;53.180;5.800;2023-09-07T02:54:55;16.80;99.90
55091;DHT22;40985;53.180;5.800;2023-09-07T02:57:20;16.80;99.90
55091;DHT22;40985;53.180;5.800;2023-09-07T02:59:46;16.80;99.90
55091;DHT22;40985;53.180;5.800;2023-09-07T03:02:12;16.80;99.90
55091;DHT22;40985;53.180;5.800;2023-09-07T03:04:37;16.80;99.90
55091;DHT22;40985;53.180;5.800;2023-09-07T03:07:03;16.80;99.90
55091;DHT22;40985;53.180;5.800;2023-09-07T03:09:29;16.70;99.90
55091;DHT22;40985;53.180;5.800;2023-09-07T03:11:54;16.70;99.90
55091;DHT22;40985;53.180;5.800;2023-09-07T03:14:20;16.80;99.90
55091;DHT22;40985;53.180;5.800;2023-09-07T03:16:46;16.80;99.90
55091;DHT22;40985;53.180;5.800;2023-09-07T03:19:15;16.70;99.90
55091;DHT22;40985;53.180;5.800;2023-09-07T03:21:41;16.70;99.90
55091;DHT22;40985;53.180;5.800;2023-09-07T03:24:07;16.60;99.90
55091;DHT22;40985;53.180;5.800;2023-09-07T03:26:33;16.60;99.90
55091;DHT22;40985;53.180;5.800;2023-09-07T03:28:58;16.60;99.90
55091;DHT22;40985;53.180;5.800;2023-09-07T03:31:24;16.60;99.90
55091;DHT22;40985;53.180;5.800;2023-09-07T03:33:50;16.60;99.90
55091;DHT22;40985;53.180;5.800;2023-09-07T03:36:15;16.50;99.90
55091;DHT22;40985;53.180;5.800;2023-09-07T03:38:41;16.50;99.90
55091;DHT22;40985;53.180;5.800;2023-09-07T03:41:07;16.50;99.90
55091;DHT22;40985;53.180;5.800;2023-09-07T03:43:33;16.50;99.90
55091;DHT22;40985;53.180;5.800;2023-09-07T03:45:59;16.50;99.90
55091;DHT22;40985;53.180;5.800;2023-09-07T03:48:24;16.50;99.90
55091;DHT22;40985;53.180;5.800;2023-09-07T03:50:50;16.40;99.90
55091;DHT22;40985;53.180;5.800;2023-09-07T03:53:16;16.40;99.90
55091;DHT22;40985;53.180;5.800;2023-09-07T03:55:43;16.40;99.90
55091;DHT22;40985;53.180;5.800;2023-09-07T03:58:10;16.40;99.90
55091;DHT22;40985;53.180;5.800;2023-09-07T04:00:40;16.30;99.90
55091;DHT22;40985;53.180;5.800;2023-09-07T04:03:09;16.30;99.90
55091;DHT22;40985;53.180;5.800;2023-09-07T04:05:38;16.30;99.90
55091;DHT22;40985;53.180;5.800;2023-09-07T04:08:04;16.20;99.90
55091;DHT22;40985;53.180;5.800;2023-09-07T04:10:30;16.20;99.90
55091;DHT22;40985;53.180;5.800;2023-09-07T04:12:56;16.20;99.90
55091;DHT22;40985;53.180;5.800;2023-09-07T04:15:21;16.20;99.90
55091;DHT22;40985;53.180;5.800;2023-09-07T04:17:47;16.20;99.90
55091;DHT22;40985;53.180;5.800;2023-09-07T04:20:13;16.20;99.90
55091;DHT22;40985;53.180;5.800;2023-09-07T04:22:39;16.20;99.90
55091;DHT22;40985;53.180;5.800;2023-09-07T04:25:06;16.20;99.90
55091;DHT22;40985;53.180;5.800;2023-09-07T04:27:32;16.20;99.90
55091;DHT22;40985;53.180;5.800;2023-09-07T04:29:57;16.20;99.90
55091;DHT22;40985;53.180;5.800;2023-09-07T04:32:23;16.20;99.90
55091;DHT22;40985;53.180;5.800;2023-09-07T04:34:53;16.20;99.90
55091;DHT22;40985;53.180;5.800;2023-09-07T04:37:19;16.20;99.90
55091;DHT22;40985;53.180;5.800;2023-09-07T04:39:45;16.20;99.90
55091;DHT22;40985;53.180;5.800;2023-09-07T04:42:11;16.30;99.90
55091;DHT22;40985;53.180;5.800;2023-09-07T04:44:36;16.30;99.90
55091;DHT22;40985;53.180;5.800;2023-09-07T04:47:02;16.30;99.90
55091;DHT22;40985;53.180;5.800;2023-09-07T04:49:28;16.30;99.90
55091;DHT22;40985;53.180;5.800;2023-09-07T04:51:54;16.30;99.90
55091;DHT22;40985;53.180;5.800;2023-09-07T04:54:20;16.30;99.90
55091;DHT22;40985;53.180;5.800;2023-09-07T04:56:45;16.30;99.90
55091;DHT22;40985;53.180;5.800;2023-09-07T04:59:11;16.30;99.90
55091;DHT22;40985;53.180;5.800;2023-09-07T05:01:37;16.30;99.90
55091;DHT22;40985;53.180;5.800;2023-09-07T05:04:02;16.20;99.90
55091;DHT22;40985;53.180;5.800;2023-09-07T05:06:29;16.30;99.90
55091;DHT22;40985;53.180;5.800;2023-09-07T05:08:55;16.20;99.90
55091;DHT22;40985;53.180;5.800;2023-09-07T05:11:20;16.20;99.90
55091;DHT22;40985;53.180;5.800;2023-09-07T05:13:46;16.10;99.90
55091;DHT22;40985;53.180;5.800;2023-09-07T05:16:12;16.10;99.90
55091;DHT22;40985;53.180;5.800;2023-09-07T05:18:38;16.10;99.90
55091;DHT22;40985;53.180;5.800;2023-09-07T05:21:16;16.10;99.90
55091;DHT22;40985;53.180;5.800;2023-09-07T05:23:42;16.10;99.90
55091;DHT22;40985;53.180;5.800;2023-09-07T05:26:08;16.00;99.90
55091;DHT22;40985;53.180;5.800;2023-09-07T05:28:34;16.00;99.90
55091;DHT22;40985;53.180;5.800;2023-09-07T05:30:59;16.10;99.90
55091;DHT22;40985;53.180;5.800;2023-09-07T05:33:25;16.00;99.90
55091;DHT22;40985;53.180;5.800;2023-09-07T05:35:51;16.10;99.90
55091;DHT22;40985;53.180;5.800;2023-09-07T05:38:16;16.10;99.90
55091;DHT22;40985;53.180;5.800;2023-09-07T05:40:43;16.00;99.90
55091;DHT22;40985;53.180;5.800;2023-09-07T05:43:10;16.10;99.90
55091;DHT22;40985;53.180;5.800;2023-09-07T05:45:40;16.10;99.90
55091;DHT22;40985;53.180;5.800;2023-09-07T05:48:07;16.10;99.90
55091;DHT22;40985;53.180;5.800;2023-09-07T05:50:35;16.10;99.90
55091;DHT22;40985;53.180;5.800;2023-09-07T05:53:01;16.10;99.90
55091;DHT22;40985;53.180;5.800;2023-09-07T05:55:26;16.10;99.90
55091;DHT22;40985;53.180;5.800;2023-09-07T05:57:55;16.20;99.90
55091;DHT22;40985;53.180;5.800;2023-09-07T06:00:21;16.20;99.90
55091;DHT22;40985;53.180;5.800;2023-09-07T06:02:47;16.20;99.90
55091;DHT22;40985;53.180;5.800;2023-09-07T06:05:13;16.30;99.90
55091;DHT22;40985;53.180;5.800;2023-09-07T06:07:39;16.30;99.90
55091;DHT22;40985;53.180;5.800;2023-09-07T06:10:05;16.30;99.90
55091;DHT22;40985;53.180;5.800;2023-09-07T06:12:34;16.40;99.90
55091;DHT22;40985;53.180;5.800;2023-09-07T06:15:00;16.40;99.90
55091;DHT22;40985;53.180;5.800;2023-09-07T06:17:27;16.50;99.90
55091;DHT22;40985;53.180;5.800;2023-09-07T06:19:54;16.60;99.90
55091;DHT22;40985;53.180;5.800;2023-09-07T06:22:19;16.60;99.90
55091;DHT22;40985;53.180;5.800;2023-09-07T06:24:45;16.60;99.90
55091;DHT22;40985;53.180;5.800;2023-09-07T06:27:11;16.70;99.90
55091;DHT22;40985;53.180;5.800;2023-09-07T06:29:36;16.70;99.90
55091;DHT22;40985;53.180;5.800;2023-09-07T06:32:02;16.80;99.90
55091;DHT22;40985;53.180;5.800;2023-09-07T06:34:28;16.90;99.90
55091;DHT22;40985;53.180;5.800;2023-09-07T06:36:53;16.90;99.90
55091;DHT22;40985;53.180;5.800;2023-09-07T06:39:19;17.00;99.90
55091;DHT22;40985;53.180;5.800;2023-09-07T06:41:46;17.00;99.90
55091;DHT22;40985;53.180;5.800;2023-09-07T06:44:12;17.10;99.90
55091;DHT22;40985;53.180;5.800;2023-09-07T06:46:38;17.20;99.90
55091;DHT22;40985;53.180;5.800;2023-09-07T06:49:03;17.20;99.90
55091;DHT22;40985;53.180;5.800;2023-09-07T06:51:30;17.30;99.90
55091;DHT22;40985;53.180;5.800;2023-09-07T06:53:56;17.30;99.90
55091;DHT22;40985;53.180;5.800;2023-09-07T06:56:22;17.50;99.90
55091;DHT22;40985;53.180;5.800;2023-09-07T06:58:48;17.50;99.90
55091;DHT22;40985;53.180;5.800;2023-09-07T07:01:13;17.60;99.90
55091;DHT22;40985;53.180;5.800;2023-09-07T07:03:39;17.70;99.90
55091;DHT22;40985;53.180;5.800;2023-09-07T07:06:05;17.70;99.90
55091;DHT22;40985;53.180;5.800;2023-09-07T07:08:31;17.80;99.90
55091;DHT22;40985;53.180;5.800;2023-09-07T07:10:56;17.90;99.90
55091;DHT22;40985;53.180;5.800;2023-09-07T07:13:22;17.90;99.90
55091;DHT22;40985;53.180;5.800;2023-09-07T07:15:48;18.00;99.90
55091;DHT22;40985;53.180;5.800;2023-09-07T07:18:13;18.10;99.90
55091;DHT22;40985;53.180;5.800;2023-09-07T07:20:40;18.10;99.90
55091;DHT22;40985;53.180;5.800;2023-09-07T07:23:06;18.20;99.90
55091;DHT22;40985;53.180;5.800;2023-09-07T07:25:32;18.30;99.90
55091;DHT22;40985;53.180;5.800;2023-09-07T07:28:03;18.40;99.90
55091;DHT22;40985;53.180;5.800;2023-09-07T07:30:33;18.40;99.90
55091;DHT22;40985;53.180;5.800;2023-09-07T07:32:59;18.50;99.90
55091;DHT22;40985;53.180;5.800;2023-09-07T07:35:24;18.70;99.90
55091;DHT22;40985;53.180;5.800;2023-09-07T07:37:51;18.70;99.90
55091;DHT22;40985;53.180;5.800;2023-09-07T07:40:17;18.80;99.90
55091;DHT22;40985;53.180;5.800;2023-09-07T07:42:44;18.80;99.90
55091;DHT22;40985;53.180;5.800;2023-09-07T07:45:10;18.90;99.90
55091;DHT22;40985;53.180;5.800;2023-09-07T07:47:35;18.90;99.90
55091;DHT22;40985;53.180;5.800;2023-09-07T07:50:01;19.00;99.90
55091;DHT22;40985;53.180;5.800;2023-09-07T07:52:27;19.00;99.90
55091;DHT22;40985;53.180;5.800;2023-09-07T07:54:53;19.10;99.90
55091;DHT22;40985;53.180;5.800;2023-09-07T07:57:19;19.10;99.90
55091;DHT22;40985;53.180;5.800;2023-09-07T07:59:45;19.20;99.90
55091;DHT22;40985;53.180;5.800;2023-09-07T08:02:10;19.30;99.90
55091;DHT22;40985;53.180;5.800;2023-09-07T08:04:36;19.40;99.90
55091;DHT22;40985;53.180;5.800;2023-09-07T08:07:02;19.50;99.90
55091;DHT22;40985;53.180;5.800;2023-09-07T08:09:33;19.60;99.90
55091;DHT22;40985;53.180;5.800;2023-09-07T08:11:59;19.70;99.90
55091;DHT22;40985;53.180;5.800;2023-09-07T08:14:28;19.70;99.90
55091;DHT22;40985;53.180;5.800;2023-09-07T08:16:54;19.90;99.90
55091;DHT22;40985;53.180;5.800;2023-09-07T08:19:20;19.90;99.90
55091;DHT22;40985;53.180;5.800;2023-09-07T08:21:45;20.00;99.90
55091;DHT22;40985;53.180;5.800;2023-09-07T08:24:12;20.20;99.90
55091;DHT22;40985;53.180;5.800;2023-09-07T08:26:38;20.30;99.90
55091;DHT22;40985;53.180;5.800;2023-09-07T08:29:04;20.40;99.90
55091;DHT22;40985;53.180;5.800;2023-09-07T08:31:35;20.50;99.90
55091;DHT22;40985;53.180;5.800;2023-09-07T08:34:06;20.60;99.90
55091;DHT22;40985;53.180;5.800;2023-09-07T08:36:32;20.70;99.90
55091;DHT22;40985;53.180;5.800;2023-09-07T08:39:00;20.80;99.90
55091;DHT22;40985;53.180;5.800;2023-09-07T08:41:38;20.80;99.90
55091;DHT22;40985;53.180;5.800;2023-09-07T08:44:08;20.90;99.90
55091;DHT22;40985;53.180;5.800;2023-09-07T08:46:35;21.00;99.90
55091;DHT22;40985;53.180;5.800;2023-09-07T08:49:02;21.20;99.90
55091;DHT22;40985;53.180;5.800;2023-09-07T08:51:30;21.30;99.90
55091;DHT22;40985;53.180;5.800;2023-09-07T08:53:57;21.40;99.90
55091;DHT22;40985;53.180;5.800;2023-09-07T08:56:24;21.50;99.90
55091;DHT22;40985;53.180;5.800;2023-09-07T08:58:50;21.70;99.90
55091;DHT22;40985;53.180;5.800;2023-09-07T09:01:18;21.80;99.90
55091;DHT22;40985;53.180;5.800;2023-09-07T09:03:48;21.90;99.90
55091;DHT22;40985;53.180;5.800;2023-09-07T09:06:16;22.00;99.90
55091;DHT22;40985;53.180;5.800;2023-09-07T09:11:12;22.10;99.90
55091;DHT22;40985;53.180;5.800;2023-09-07T09:13:40;22.30;99.90
55091;DHT22;40985;53.180;5.800;2023-09-07T09:16:06;22.40;99.90
55091;DHT22;40985;53.180;5.800;2023-09-07T09:18:32;22.40;99.90
55091;DHT22;40985;53.180;5.800;2023-09-07T09:20:58;22.60;99.90
55091;DHT22;40985;53.180;5.800;2023-09-07T09:23:34;22.60;99.90
55091;DHT22;40985;53.180;5.800;2023-09-07T09:26:07;22.80;99.90
55091;DHT22;40985;53.180;5.800;2023-09-07T09:28:33;22.90;99.90
55091;DHT22;40985;53.180;5.800;2023-09-07T09:31:00;23.10;99.90
55091;DHT22;40985;53.180;5.800;2023-09-07T09:33:26;23.10;99.90
55091;DHT22;40985;53.180;5.800;2023-09-07T09:35:53;23.20;99.90
55091;DHT22;40985;53.180;5.800;2023-09-07T09:38:20;23.30;99.90
55091;DHT22;40985;53.180;5.800;2023-09-07T09:40:46;23.40;99.90
55091;DHT22;40985;53.180;5.800;2023-09-07T09:43:12;23.40;99.90
55091;DHT22;40985;53.180;5.800;2023-09-07T09:45:38;23.50;99.90
55091;DHT22;40985;53.180;5.800;2023-09-07T09:48:05;23.60;99.90
55091;DHT22;40985;53.180;5.800;2023-09-07T09:50:32;23.60;99.90
55091;DHT22;40985;53.180;5.800;2023-09-07T09:53:07;23.70;99.90
55091;DHT22;40985;53.180;5.800;2023-09-07T09:55:36;23.80;99.90
55091;DHT22;40985;53.180;5.800;2023-09-07T09:58:02;23.90;99.90
55091;DHT22;40985;53.180;5.800;2023-09-07T10:00:28;23.90;99.90
55091;DHT22;40985;53.180;5.800;2023-09-07T10:03:05;23.90;99.90
55091;DHT22;40985;53.180;5.800;2023-09-07T10:05:33;24.00;99.90
55091;DHT22;40985;53.180;5.800;2023-09-07T10:08:07;24.10;99.90
55091;DHT22;40985;53.180;5.800;2023-09-07T10:10:34;24.10;99.90
55091;DHT22;40985;53.180;5.800;2023-09-07T10:13:01;24.20;99.90
55091;DHT22;40985;53.180;5.800;2023-09-07T10:15:27;24.30;99.90
55091;DHT22;40985;53.180;5.800;2023-09-07T10:18:13;24.40;99.90
55091;DHT22;40985;53.180;5.800;2023-09-07T10:23:14;24.50;99.90
55091;DHT22;40985;53.180;5.800;2023-09-07T10:25:40;24.60;99.90
55091;DHT22;40985;53.180;5.800;2023-09-07T10:28:06;24.70;99.90
55091;DHT22;40985;53.180;5.800;2023-09-07T10:30:42;24.70;99.90
55091;DHT22;40985;53.180;5.800;2023-09-07T10:33:19;24.90;99.90
55091;DHT22;40985;53.180;5.800;2023-09-07T10:35:45;24.90;99.90
55091;DHT22;40985;53.180;5.800;2023-09-07T10:38:13;25.10;99.90
55091;DHT22;40985;53.180;5.800;2023-09-07T10:40:40;25.10;99.90
55091;DHT22;40985;53.180;5.800;2023-09-07T10:43:06;25.20;99.90
55091;DHT22;40985;53.180;5.800;2023-09-07T10:45:33;25.30;99.90
55091;DHT22;40985;53.180;5.800;2023-09-07T10:47:59;25.30;99.90
55091;DHT22;40985;53.180;5.800;2023-09-07T10:50:25;25.40;99.90
55091;DHT22;40985;53.180;5.800;2023-09-07T10:52:51;25.50;99.90
55091;DHT22;40985;53.180;5.800;2023-09-07T10:55:16;25.60;99.90
55091;DHT22;40985;53.180;5.800;2023-09-07T10:57:46;25.60;99.90
55091;DHT22;40985;53.180;5.800;2023-09-07T11:00:14;25.60;99.90
55091;DHT22;40985;53.180;5.800;2023-09-07T11:02:41;25.80;99.90
55091;DHT22;40985;53.180;5.800;2023-09-07T11:05:07;25.90;99.90
55091;DHT22;40985;53.180;5.800;2023-09-07T11:07:33;25.90;99.90
55091;DHT22;40985;53.180;5.800;2023-09-07T11:10:00;26.00;99.90
55091;DHT22;40985;53.180;5.800;2023-09-07T11:12:25;26.00;99.90
55091;DHT22;40985;53.180;5.800;2023-09-07T11:14:51;26.10;99.90
55091;DHT22;40985;53.180;5.800;2023-09-07T11:17:18;26.20;99.90
55091;DHT22;40985;53.180;5.800;2023-09-07T11:19:44;26.20;99.90
55091;DHT22;40985;53.180;5.800;2023-09-07T11:22:10;26.30;99.90
55091;DHT22;40985;53.180;5.800;2023-09-07T11:24:36;26.30;99.90
55091;DHT22;40985;53.180;5.800;2023-09-07T11:27:02;26.30;99.90
55091;DHT22;40985;53.180;5.800;2023-09-07T11:29:31;26.40;99.90
55091;DHT22;40985;53.180;5.800;2023-09-07T11:32:08;26.40;99.90
55091;DHT22;40985;53.180;5.800;2023-09-07T11:34:34;26.50;99.90
55091;DHT22;40985;53.180;5.800;2023-09-07T11:37:02;26.60;99.90
55091;DHT22;40985;53.180;5.800;2023-09-07T11:39:28;26.80;99.90
55091;DHT22;40985;53.180;5.800;2023-09-07T11:41:54;26.90;99.90
55091;DHT22;40985;53.180;5.800;2023-09-07T11:44:20;26.80;99.90
55091;DHT22;40985;53.180;5.800;2023-09-07T11:46:46;27.00;99.90
55091;DHT22;40985;53.180;5.800;2023-09-07T11:49:12;27.10;99.90
55091;DHT22;40985;53.180;5.800;2023-09-07T11:51:37;27.10;99.90
55091;DHT22;40985;53.180;5.800;2023-09-07T11:54:03;27.20;99.90
55091;DHT22;40985;53.180;5.800;2023-09-07T11:56:30;27.40;99.90
55091;DHT22;40985;53.180;5.800;2023-09-07T11:58:55;27.50;99.90
55091;DHT22;40985;53.180;5.800;2023-09-07T12:01:21;27.50;99.90
55091;DHT22;40985;53.180;5.800;2023-09-07T12:03:47;27.60;99.90
55091;DHT22;40985;53.180;5.800;2023-09-07T12:06:13;27.50;99.90
55091;DHT22;40985;53.180;5.800;2023-09-07T12:08:42;27.60;99.90
55091;DHT22;40985;53.180;5.800;2023-09-07T12:11:08;27.60;99.90
55091;DHT22;40985;53.180;5.800;2023-09-07T12:13:34;27.70;99.90
55091;DHT22;40985;53.180;5.800;2023-09-07T12:15:59;27.70;99.90
55091;DHT22;40985;53.180;5.800;2023-09-07T12:18:27;27.80;99.90
55091;DHT22;40985;53.180;5.800;2023-09-07T12:20:53;27.80;99.90
55091;DHT22;40985;53.180;5.800;2023-09-07T12:23:19;27.80;99.90
55091;DHT22;40985;53.180;5.800;2023-09-07T12:25:45;27.90;99.90
55091;DHT22;40985;53.180;5.800;2023-09-07T12:28:16;28.00;99.90
55091;DHT22;40985;53.180;5.800;2023-09-07T12:30:41;28.10;99.90
55091;DHT22;40985;53.180;5.800;2023-09-07T12:33:10;28.20;99.90
55091;DHT22;40985;53.180;5.800;2023-09-07T12:35:35;28.30;99.90
55091;DHT22;40985;53.180;5.800;2023-09-07T12:38:01;28.30;99.90
55091;DHT22;40985;53.180;5.800;2023-09-07T12:40:28;28.30;99.90
55091;DHT22;40985;53.180;5.800;2023-09-07T12:42:54;28.30;99.90
55091;DHT22;40985;53.180;5.800;2023-09-07T12:45:20;28.20;99.90
55091;DHT22;40985;53.180;5.800;2023-09-07T12:47:45;28.40;99.90
55091;DHT22;40985;53.180;5.800;2023-09-07T12:50:11;28.40;99.90
55091;DHT22;40985;53.180;5.800;2023-09-07T12:52:37;28.60;99.90
55091;DHT22;40985;53.180;5.800;2023-09-07T12:55:04;28.50;99.90
55091;DHT22;40985;53.180;5.800;2023-09-07T12:57:31;28.50;99.90
55091;DHT22;40985;53.180;5.800;2023-09-07T12:59:56;28.50;99.90
55091;DHT22;40985;53.180;5.800;2023-09-07T13:02:22;28.50;99.90
55091;DHT22;40985;53.180;5.800;2023-09-07T13:04:48;28.50;99.90
55091;DHT22;40985;53.180;5.800;2023-09-07T13:07:13;28.60;99.90
55091;DHT22;40985;53.180;5.800;2023-09-07T13:09:39;28.50;99.90
55091;DHT22;40985;53.180;5.800;2023-09-07T13:12:05;28.50;99.90
55091;DHT22;40985;53.180;5.800;2023-09-07T13:14:31;28.50;99.90
55091;DHT22;40985;53.180;5.800;2023-09-07T13:16:56;28.50;99.90
55091;DHT22;40985;53.180;5.800;2023-09-07T13:19:22;28.70;99.90
55091;DHT22;40985;53.180;5.800;2023-09-07T13:21:48;28.60;99.90
55091;DHT22;40985;53.180;5.800;2023-09-07T13:24:13;28.70;99.90
55091;DHT22;40985;53.180;5.800;2023-09-07T13:26:40;28.50;99.90
55091;DHT22;40985;53.180;5.800;2023-09-07T13:29:05;28.70;99.90
55091;DHT22;40985;53.180;5.800;2023-09-07T13:31:31;28.70;99.90
55091;DHT22;40985;53.180;5.800;2023-09-07T13:33:56;28.80;99.90
55091;DHT22;40985;53.180;5.800;2023-09-07T13:36:22;28.90;99.90
55091;DHT22;40985;53.180;5.800;2023-09-07T13:38:48;28.80;99.90
55091;DHT22;40985;53.180;5.800;2023-09-07T13:41:13;28.80;99.90
55091;DHT22;40985;53.180;5.800;2023-09-07T13:43:39;28.80;99.90
55091;DHT22;40985;53.180;5.800;2023-09-07T13:46:05;28.70;99.90
55091;DHT22;40985;53.180;5.800;2023-09-07T13:48:30;28.70;99.90
55091;DHT22;40985;53.180;5.800;2023-09-07T13:50:58;28.80;99.90
55091;DHT22;40985;53.180;5.800;2023-09-07T13:53:24;28.70;99.90
55091;DHT22;40985;53.180;5.800;2023-09-07T13:55:49;28.70;99.90
55091;DHT22;40985;53.180;5.800;2023-09-07T13:58:15;28.60;99.90
55091;DHT22;40985;53.180;5.800;2023-09-07T14:00:41;28.60;99.90
55091;DHT22;40985;53.180;5.800;2023-09-07T14:03:07;28.60;99.90
55091;DHT22;40985;53.180;5.800;2023-09-07T14:05:32;28.50;99.90
55091;DHT22;40985;53.180;5.800;2023-09-07T14:07:58;28.60;99.90
55091;DHT22;40985;53.180;5.800;2023-09-07T14:10:24;28.50;99.90
55091;DHT22;40985;53.180;5.800;2023-09-07T14:12:49;28.60;99.90
55091;DHT22;40985;53.180;5.800;2023-09-07T14:15:15;28.50;99.90
55091;DHT22;40985;53.180;5.800;2023-09-07T14:17:41;28.50;99.90
55091;DHT22;40985;53.180;5.800;2023-09-07T14:20:07;28.50;99.90
55091;DHT22;40985;53.180;5.800;2023-09-07T14:22:32;28.50;99.90
55091;DHT22;40985;53.180;5.800;2023-09-07T14:24:58;28.50;99.90
55091;DHT22;40985;53.180;5.800;2023-09-07T14:27:24;28.40;99.90
55091;DHT22;40985;53.180;5.800;2023-09-07T14:29:51;28.40;99.90
55091;DHT22;40985;53.180;5.800;2023-09-07T14:32:17;28.40;99.90
55091;DHT22;40985;53.180;5.800;2023-09-07T14:34:43;28.50;99.90
55091;DHT22;40985;53.180;5.800;2023-09-07T14:37:08;28.40;99.90
55091;DHT22;40985;53.180;5.800;2023-09-07T14:39:34;28.40;99.90
55091;DHT22;40985;53.180;5.800;2023-09-07T14:42:01;28.40;99.90
55091;DHT22;40985;53.180;5.800;2023-09-07T14:44:27;28.40;99.90
55091;DHT22;40985;53.180;5.800;2023-09-07T14:46:52;28.50;99.90
55091;DHT22;40985;53.180;5.800;2023-09-07T14:49:18;28.50;99.90
55091;DHT22;40985;53.180;5.800;2023-09-07T14:51:44;28.40;99.90
55091;DHT22;40985;53.180;5.800;2023-09-07T14:54:13;28.40;99.90
55091;DHT22;40985;53.180;5.800;2023-09-07T14:56:39;28.30;99.90
55091;DHT22;40985;53.180;5.800;2023-09-07T14:59:05;28.20;99.90
55091;DHT22;40985;53.180;5.800;2023-09-07T15:01:31;28.20;99.90
55091;DHT22;40985;53.180;5.800;2023-09-07T15:03:57;28.10;99.90
55091;DHT22;40985;53.180;5.800;2023-09-07T15:06:23;28.00;99.90
55091;DHT22;40985;53.180;5.800;2023-09-07T15:08:48;28.00;99.90
55091;DHT22;40985;53.180;5.800;2023-09-07T15:11:16;28.00;99.90
55091;DHT22;40985;53.180;5.800;2023-09-07T15:13:41;27.90;99.90
55091;DHT22;40985;53.180;5.800;2023-09-07T15:16:07;27.80;99.90
55091;DHT22;40985;53.180;5.800;2023-09-07T15:18:34;27.80;99.90
55091;DHT22;40985;53.180;5.800;2023-09-07T15:21:00;27.80;99.90
55091;DHT22;40985;53.180;5.800;2023-09-07T15:23:25;27.70;99.90
55091;DHT22;40985;53.180;5.800;2023-09-07T15:25:52;27.80;99.90
55091;DHT22;40985;53.180;5.800;2023-09-07T15:28:18;27.60;99.90
55091;DHT22;40985;53.180;5.800;2023-09-07T15:30:44;27.50;99.90